sensor_id;sensor_type;location;lat;lon;timestamp;P1;durP1;ratioP1;P2;durP2;ratioP2
39176;SDS011;24904;52.208;21.192;2023-03-01T00:02:48;51.00;;;25.30;;
39176;SDS011;24904;52.208;21.192;2023-03-01T00:07:53;51.50;;;24.40;;
39176;SDS011;24904;52.208;21.192;2023-03-01T00:12:56;46.50;;;24.00;;
39176;SDS011;24904;52.208;21.192;2023-03-01T00:17:59;50.60;;;25.70;;
39176;SDS011;24904;52.208;21.192;2023-03-01T00:23:02;49.00;;;25.00;;
39176;SDS011;24904;52.208;21.192;2023-03-01T00:28:05;48.40;;;26.40;;
39176;SDS011;24904;52.208;21.192;2023-03-01T00:33:08;56.80;;;28.60;;
39176;SDS011;24904;52.208;21.192;2023-03-01T00:38:11;60.10;;;31.90;;
39176;SDS011;24904;52.208;21.192;2023-03-01T00:43:14;59.10;;;32.00;;
39176;SDS011;24904;52.208;21.192;2023-03-01T00:48:17;63.00;;;32.30;;
39176;SDS011;24904;52.208;21.192;2023-03-01T00:53:20;68.90;;;33.60;;
39176;SDS011;24904;52.208;21.192;2023-03-01T00:58:23;67.20;;;34.20;;
39176;SDS011;24904;52.208;21.192;2023-03-01T01:03:26;71.50;;;35.10;;
39176;SDS011;24904;52.208;21.192;2023-03-01T01:08:29;68.50;;;35.20;;
39176;SDS011;24904;52.208;21.192;2023-03-01T01:13:32;73.80;;;34.30;;
39176;SDS011;24904;52.208;21.192;2023-03-01T01:18:35;69.00;;;35.70;;
39176;SDS011;24904;52.208;21.192;2023-03-01T01:23:39;61.80;;;31.20;;
39176;SDS011;24904;52.208;21.192;2023-03-01T01:28:44;59.70;;;31.20;;
39176;SDS011;24904;52.208;21.192;2023-03-01T01:33:47;57.80;;;28.60;;
39176;SDS011;24904;52.208;21.192;2023-03-01T01:38:50;58.60;;;31.30;;
39176;SDS011;24904;52.208;21.192;2023-03-01T01:49:23;60.10;;;30.70;;
39176;SDS011;24904;52.208;21.192;2023-03-01T01:54:31;62.70;;;32.60;;
39176;SDS011;24904;52.208;21.192;2023-03-01T01:59:41;59.10;;;29.60;;
39176;SDS011;24904;52.208;21.192;2023-03-01T02:04:49;55.00;;;30.90;;
39176;SDS011;24904;52.208;21.192;2023-03-01T02:09:56;62.80;;;31.60;;
39176;SDS011;24904;52.208;21.192;2023-03-01T02:15:00;65.60;;;31.60;;
39176;SDS011;24904;52.208;21.192;2023-03-01T02:20:06;56.50;;;29.40;;
39176;SDS011;24904;52.208;21.192;2023-03-01T02:25:22;59.60;;;30.90;;
39176;SDS011;24904;52.208;21.192;2023-03-01T02:30:42;60.70;;;31.80;;
39176;SDS011;24904;52.208;21.192;2023-03-01T02:36:01;65.10;;;33.10;;
39176;SDS011;24904;52.208;21.192;2023-03-01T02:41:08;69.80;;;33.30;;
39176;SDS011;24904;52.208;21.192;2023-03-01T02:46:17;71.20;;;33.20;;
39176;SDS011;24904;52.208;21.192;2023-03-01T02:51:32;61.20;;;31.70;;
39176;SDS011;24904;52.208;21.192;2023-03-01T02:56:44;71.90;;;34.50;;
39176;SDS011;24904;52.208;21.192;2023-03-01T03:01:50;56.30;;;30.30;;
39176;SDS011;24904;52.208;21.192;2023-03-01T03:06:54;61.40;;;31.40;;
39176;SDS011;24904;52.208;21.192;2023-03-01T03:11:57;63.40;;;32.30;;
39176;SDS011;24904;52.208;21.192;2023-03-01T03:17:00;62.80;;;30.90;;
39176;SDS011;24904;52.208;21.192;2023-03-01T03:22:07;65.00;;;30.80;;
39176;SDS011;24904;52.208;21.192;2023-03-01T03:27:10;62.00;;;31.70;;
39176;SDS011;24904;52.208;21.192;2023-03-01T03:32:13;59.90;;;30.20;;
39176;SDS011;24904;52.208;21.192;2023-03-01T03:37:16;62.30;;;30.30;;
39176;SDS011;24904;52.208;21.192;2023-03-01T03:42:34;62.60;;;28.80;;
39176;SDS011;24904;52.208;21.192;2023-03-01T03:47:37;54.50;;;30.10;;
39176;SDS011;24904;52.208;21.192;2023-03-01T03:52:40;60.90;;;31.40;;
39176;SDS011;24904;52.208;21.192;2023-03-01T03:57:44;59.20;;;29.90;;
39176;SDS011;24904;52.208;21.192;2023-03-01T04:02:52;57.20;;;28.50;;
39176;SDS011;24904;52.208;21.192;2023-03-01T04:07:57;57.40;;;28.80;;
39176;SDS011;24904;52.208;21.192;2023-03-01T04:13:03;53.30;;;28.40;;
39176;SDS011;24904;52.208;21.192;2023-03-01T04:18:07;57.60;;;29.90;;
39176;SDS011;24904;52.208;21.192;2023-03-01T04:23:14;57.20;;;28.30;;
39176;SDS011;24904;52.208;21.192;2023-03-01T04:28:21;55.90;;;29.10;;
39176;SDS011;24904;52.208;21.192;2023-03-01T04:33:25;54.80;;;26.80;;
39176;SDS011;24904;52.208;21.192;2023-03-01T04:38:28;57.20;;;28.20;;
39176;SDS011;24904;52.208;21.192;2023-03-01T04:43:32;52.40;;;28.20;;
39176;SDS011;24904;52.208;21.192;2023-03-01T04:48:35;55.90;;;28.70;;
39176;SDS011;24904;52.208;21.192;2023-03-01T04:53:40;51.90;;;28.60;;
39176;SDS011;24904;52.208;21.192;2023-03-01T04:58:43;56.60;;;29.30;;
39176;SDS011;24904;52.208;21.192;2023-03-01T05:03:48;62.20;;;28.80;;
39176;SDS011;24904;52.208;21.192;2023-03-01T05:08:52;53.50;;;27.00;;
39176;SDS011;24904;52.208;21.192;2023-03-01T05:13:55;56.40;;;28.30;;
39176;SDS011;24904;52.208;21.192;2023-03-01T05:18:58;59.00;;;29.40;;
39176;SDS011;24904;52.208;21.192;2023-03-01T05:24:02;59.90;;;27.40;;
39176;SDS011;24904;52.208;21.192;2023-03-01T05:29:05;58.80;;;28.20;;
39176;SDS011;24904;52.208;21.192;2023-03-01T05:34:10;56.40;;;26.50;;
39176;SDS011;24904;52.208;21.192;2023-03-01T05:39:14;52.50;;;28.40;;
39176;SDS011;24904;52.208;21.192;2023-03-01T05:44:17;57.30;;;29.20;;
39176;SDS011;24904;52.208;21.192;2023-03-01T05:49:20;54.30;;;29.60;;
39176;SDS011;24904;52.208;21.192;2023-03-01T05:59:48;63.90;;;30.90;;
39176;SDS011;24904;52.208;21.192;2023-03-01T06:04:51;55.40;;;28.60;;
39176;SDS011;24904;52.208;21.192;2023-03-01T06:09:54;48.80;;;25.80;;
39176;SDS011;24904;52.208;21.192;2023-03-01T06:14:58;54.00;;;26.60;;
39176;SDS011;24904;52.208;21.192;2023-03-01T06:20:01;49.80;;;27.80;;
39176;SDS011;24904;52.208;21.192;2023-03-01T06:25:05;59.30;;;28.90;;
39176;SDS011;24904;52.208;21.192;2023-03-01T06:30:11;55.60;;;28.90;;
39176;SDS011;24904;52.208;21.192;2023-03-01T06:35:17;52.10;;;27.50;;
39176;SDS011;24904;52.208;21.192;2023-03-01T06:40:20;50.20;;;28.00;;
39176;SDS011;24904;52.208;21.192;2023-03-01T06:45:24;52.20;;;29.00;;
39176;SDS011;24904;52.208;21.192;2023-03-01T06:50:27;60.70;;;30.60;;
39176;SDS011;24904;52.208;21.192;2023-03-01T06:55:30;54.00;;;28.60;;
39176;SDS011;24904;52.208;21.192;2023-03-01T07:00:33;61.60;;;29.80;;
39176;SDS011;24904;52.208;21.192;2023-03-01T07:05:36;56.40;;;29.50;;
39176;SDS011;24904;52.208;21.192;2023-03-01T07:10:39;52.30;;;28.20;;
39176;SDS011;24904;52.208;21.192;2023-03-01T07:15:42;56.00;;;27.00;;
39176;SDS011;24904;52.208;21.192;2023-03-01T07:20:45;53.00;;;26.90;;
39176;SDS011;24904;52.208;21.192;2023-03-01T07:25:51;55.30;;;28.40;;
39176;SDS011;24904;52.208;21.192;2023-03-01T07:30:55;46.90;;;25.60;;
39176;SDS011;24904;52.208;21.192;2023-03-01T07:36:03;55.50;;;27.00;;
39176;SDS011;24904;52.208;21.192;2023-03-01T07:41:07;54.20;;;27.20;;
39176;SDS011;24904;52.208;21.192;2023-03-01T07:46:10;50.70;;;26.00;;
39176;SDS011;24904;52.208;21.192;2023-03-01T07:51:13;50.40;;;23.90;;
39176;SDS011;24904;52.208;21.192;2023-03-01T07:56:17;51.10;;;25.80;;
39176;SDS011;24904;52.208;21.192;2023-03-01T08:07:26;45.70;;;22.30;;
39176;SDS011;24904;52.208;21.192;2023-03-01T08:12:29;38.50;;;19.40;;
39176;SDS011;24904;52.208;21.192;2023-03-01T08:17:32;36.10;;;20.10;;
39176;SDS011;24904;52.208;21.192;2023-03-01T08:22:35;37.00;;;18.10;;
39176;SDS011;24904;52.208;21.192;2023-03-01T08:27:38;33.30;;;16.20;;
39176;SDS011;24904;52.208;21.192;2023-03-01T08:32:41;30.20;;;15.20;;
39176;SDS011;24904;52.208;21.192;2023-03-01T08:37:44;29.20;;;14.50;;
39176;SDS011;24904;52.208;21.192;2023-03-01T08:42:47;30.00;;;15.60;;
39176;SDS011;24904;52.208;21.192;2023-03-01T08:47:52;33.70;;;16.30;;
39176;SDS011;24904;52.208;21.192;2023-03-01T08:52:55;32.80;;;15.30;;
39176;SDS011;24904;52.208;21.192;2023-03-01T08:57:58;31.20;;;16.10;;
39176;SDS011;24904;52.208;21.192;2023-03-01T09:03:01;34.70;;;16.90;;
39176;SDS011;24904;52.208;21.192;2023-03-01T09:08:05;34.40;;;16.60;;
39176;SDS011;24904;52.208;21.192;2023-03-01T09:13:09;28.90;;;16.20;;
39176;SDS011;24904;52.208;21.192;2023-03-01T09:18:13;26.40;;;14.50;;
39176;SDS011;24904;52.208;21.192;2023-03-01T09:23:16;30.30;;;16.10;;
39176;SDS011;24904;52.208;21.192;2023-03-01T09:28:19;31.80;;;14.40;;
39176;SDS011;24904;52.208;21.192;2023-03-01T09:33:24;28.40;;;15.30;;
39176;SDS011;24904;52.208;21.192;2023-03-01T09:38:28;28.90;;;16.90;;
39176;SDS011;24904;52.208;21.192;2023-03-01T09:43:34;38.90;;;17.70;;
39176;SDS011;24904;52.208;21.192;2023-03-01T09:48:46;32.40;;;16.20;;
39176;SDS011;24904;52.208;21.192;2023-03-01T09:53:53;30.80;;;15.00;;
39176;SDS011;24904;52.208;21.192;2023-03-01T09:58:58;29.00;;;14.30;;
39176;SDS011;24904;52.208;21.192;2023-03-01T10:04:20;25.10;;;13.70;;
39176;SDS011;24904;52.208;21.192;2023-03-01T10:09:29;31.10;;;14.60;;
39176;SDS011;24904;52.208;21.192;2023-03-01T10:14:36;28.30;;;14.40;;
39176;SDS011;24904;52.208;21.192;2023-03-01T10:19:46;24.40;;;13.30;;
39176;SDS011;24904;52.208;21.192;2023-03-01T10:24:50;31.00;;;16.10;;
39176;SDS011;24904;52.208;21.192;2023-03-01T10:29:56;30.80;;;17.80;;
39176;SDS011;24904;52.208;21.192;2023-03-01T10:35:16;32.10;;;16.40;;
39176;SDS011;24904;52.208;21.192;2023-03-01T10:40:21;33.00;;;17.40;;
39176;SDS011;24904;52.208;21.192;2023-03-01T10:45:30;28.20;;;15.60;;
39176;SDS011;24904;52.208;21.192;2023-03-01T10:50:35;28.40;;;16.90;;
39176;SDS011;24904;52.208;21.192;2023-03-01T10:55:40;30.00;;;15.00;;
39176;SDS011;24904;52.208;21.192;2023-03-01T11:00:47;27.40;;;15.10;;
39176;SDS011;24904;52.208;21.192;2023-03-01T11:05:55;32.80;;;16.10;;
39176;SDS011;24904;52.208;21.192;2023-03-01T11:11:11;29.60;;;14.00;;
39176;SDS011;24904;52.208;21.192;2023-03-01T11:16:23;27.80;;;13.40;;
39176;SDS011;24904;52.208;21.192;2023-03-01T11:21:28;23.70;;;12.50;;
39176;SDS011;24904;52.208;21.192;2023-03-01T11:26:34;24.20;;;14.00;;
39176;SDS011;24904;52.208;21.192;2023-03-01T11:31:41;24.30;;;12.00;;
39176;SDS011;24904;52.208;21.192;2023-03-01T11:36:46;28.50;;;13.30;;
39176;SDS011;24904;52.208;21.192;2023-03-01T11:41:58;25.60;;;12.90;;
39176;SDS011;24904;52.208;21.192;2023-03-01T11:47:11;27.00;;;13.20;;
39176;SDS011;24904;52.208;21.192;2023-03-01T11:52:27;29.80;;;14.80;;
39176;SDS011;24904;52.208;21.192;2023-03-01T11:57:43;22.30;;;12.60;;
39176;SDS011;24904;52.208;21.192;2023-03-01T12:08:33;25.40;;;13.80;;
39176;SDS011;24904;52.208;21.192;2023-03-01T12:13:46;27.90;;;13.20;;
39176;SDS011;24904;52.208;21.192;2023-03-01T12:19:04;21.10;;;12.60;;
39176;SDS011;24904;52.208;21.192;2023-03-01T12:24:23;25.40;;;14.10;;
39176;SDS011;24904;52.208;21.192;2023-03-01T12:29:38;26.60;;;14.60;;
39176;SDS011;24904;52.208;21.192;2023-03-01T12:34:51;24.20;;;12.10;;
39176;SDS011;24904;52.208;21.192;2023-03-01T12:40:20;19.60;;;10.60;;
39176;SDS011;24904;52.208;21.192;2023-03-01T12:45:43;25.60;;;10.40;;
39176;SDS011;24904;52.208;21.192;2023-03-01T12:51:05;19.00;;;10.80;;
39176;SDS011;24904;52.208;21.192;2023-03-01T12:56:12;20.80;;;10.70;;
39176;SDS011;24904;52.208;21.192;2023-03-01T13:01:22;26.50;;;11.30;;
39176;SDS011;24904;52.208;21.192;2023-03-01T13:06:37;14.70;;;9.10;;
39176;SDS011;24904;52.208;21.192;2023-03-01T13:11:46;17.10;;;9.40;;
39176;SDS011;24904;52.208;21.192;2023-03-01T13:16:49;14.80;;;8.20;;
39176;SDS011;24904;52.208;21.192;2023-03-01T13:21:53;16.20;;;8.60;;
39176;SDS011;24904;52.208;21.192;2023-03-01T13:27:10;13.50;;;8.80;;
39176;SDS011;24904;52.208;21.192;2023-03-01T13:32:24;13.70;;;8.80;;
39176;SDS011;24904;52.208;21.192;2023-03-01T13:37:36;13.50;;;7.60;;
39176;SDS011;24904;52.208;21.192;2023-03-01T13:42:42;17.90;;;9.20;;
39176;SDS011;24904;52.208;21.192;2023-03-01T13:47:49;16.50;;;9.50;;
39176;SDS011;24904;52.208;21.192;2023-03-01T13:53:00;15.60;;;10.20;;
39176;SDS011;24904;52.208;21.192;2023-03-01T13:58:14;16.40;;;10.30;;
39176;SDS011;24904;52.208;21.192;2023-03-01T14:03:24;16.50;;;9.50;;
39176;SDS011;24904;52.208;21.192;2023-03-01T14:08:29;20.50;;;10.20;;
39176;SDS011;24904;52.208;21.192;2023-03-01T14:13:38;18.20;;;10.30;;
39176;SDS011;24904;52.208;21.192;2023-03-01T14:18:59;18.20;;;9.50;;
39176;SDS011;24904;52.208;21.192;2023-03-01T14:24:18;20.10;;;11.20;;
39176;SDS011;24904;52.208;21.192;2023-03-01T14:29:26;18.30;;;10.50;;
39176;SDS011;24904;52.208;21.192;2023-03-01T14:45:07;22.60;;;11.60;;
39176;SDS011;24904;52.208;21.192;2023-03-01T14:50:21;18.00;;;10.50;;
39176;SDS011;24904;52.208;21.192;2023-03-01T14:55:31;21.80;;;11.50;;
39176;SDS011;24904;52.208;21.192;2023-03-01T15:00:38;21.10;;;10.90;;
39176;SDS011;24904;52.208;21.192;2023-03-01T15:05:51;22.90;;;12.30;;
39176;SDS011;24904;52.208;21.192;2023-03-01T15:10:58;21.20;;;11.30;;
39176;SDS011;24904;52.208;21.192;2023-03-01T15:16:06;21.40;;;11.40;;
39176;SDS011;24904;52.208;21.192;2023-03-01T15:21:17;20.50;;;10.70;;
39176;SDS011;24904;52.208;21.192;2023-03-01T15:26:26;20.20;;;10.30;;
39176;SDS011;24904;52.208;21.192;2023-03-01T15:31:34;19.70;;;11.50;;
39176;SDS011;24904;52.208;21.192;2023-03-01T15:36:42;20.70;;;11.70;;
39176;SDS011;24904;52.208;21.192;2023-03-01T15:41:51;23.40;;;12.10;;
39176;SDS011;24904;52.208;21.192;2023-03-01T15:46:57;19.40;;;11.30;;
39176;SDS011;24904;52.208;21.192;2023-03-01T15:52:03;19.90;;;11.00;;
39176;SDS011;24904;52.208;21.192;2023-03-01T15:57:10;20.10;;;11.70;;
39176;SDS011;24904;52.208;21.192;2023-03-01T16:02:16;22.90;;;12.30;;
39176;SDS011;24904;52.208;21.192;2023-03-01T16:07:22;19.80;;;11.40;;
39176;SDS011;24904;52.208;21.192;2023-03-01T16:12:29;32.10;;;12.50;;
39176;SDS011;24904;52.208;21.192;2023-03-01T16:17:34;44.10;;;13.20;;
39176;SDS011;24904;52.208;21.192;2023-03-01T16:22:39;37.30;;;12.20;;
39176;SDS011;24904;52.208;21.192;2023-03-01T16:27:46;27.80;;;11.80;;
39176;SDS011;24904;52.208;21.192;2023-03-01T16:32:52;24.10;;;11.90;;
39176;SDS011;24904;52.208;21.192;2023-03-01T16:37:57;27.00;;;11.60;;
39176;SDS011;24904;52.208;21.192;2023-03-01T16:43:04;22.90;;;12.50;;
39176;SDS011;24904;52.208;21.192;2023-03-01T16:48:11;30.10;;;16.20;;
39176;SDS011;24904;52.208;21.192;2023-03-01T16:53:17;32.50;;;15.60;;
39176;SDS011;24904;52.208;21.192;2023-03-01T16:58:22;31.40;;;14.90;;
39176;SDS011;24904;52.208;21.192;2023-03-01T17:03:27;36.20;;;16.10;;
39176;SDS011;24904;52.208;21.192;2023-03-01T17:08:32;28.20;;;13.40;;
39176;SDS011;24904;52.208;21.192;2023-03-01T17:13:38;30.10;;;13.30;;
39176;SDS011;24904;52.208;21.192;2023-03-01T17:18:44;26.40;;;13.30;;
39176;SDS011;24904;52.208;21.192;2023-03-01T17:23:49;36.40;;;15.20;;
39176;SDS011;24904;52.208;21.192;2023-03-01T17:28:57;35.70;;;19.90;;
39176;SDS011;24904;52.208;21.192;2023-03-01T17:34:02;32.70;;;16.70;;
39176;SDS011;24904;52.208;21.192;2023-03-01T17:39:07;35.70;;;16.20;;
39176;SDS011;24904;52.208;21.192;2023-03-01T17:44:12;30.90;;;15.00;;
39176;SDS011;24904;52.208;21.192;2023-03-01T17:49:17;31.00;;;14.80;;
39176;SDS011;24904;52.208;21.192;2023-03-01T17:54:22;29.10;;;15.70;;
39176;SDS011;24904;52.208;21.192;2023-03-01T17:59:28;33.00;;;16.10;;
39176;SDS011;24904;52.208;21.192;2023-03-01T18:04:34;31.00;;;15.90;;
39176;SDS011;24904;52.208;21.192;2023-03-01T18:09:40;33.50;;;17.00;;
39176;SDS011;24904;52.208;21.192;2023-03-01T18:14:45;30.00;;;16.80;;
39176;SDS011;24904;52.208;21.192;2023-03-01T18:19:54;35.00;;;17.40;;
39176;SDS011;24904;52.208;21.192;2023-03-01T18:24:59;37.00;;;18.80;;
39176;SDS011;24904;52.208;21.192;2023-03-01T18:30:06;26.90;;;15.10;;
39176;SDS011;24904;52.208;21.192;2023-03-01T18:35:14;31.90;;;16.30;;
39176;SDS011;24904;52.208;21.192;2023-03-01T18:40:19;26.50;;;16.10;;
39176;SDS011;24904;52.208;21.192;2023-03-01T18:45:24;30.80;;;14.10;;
39176;SDS011;24904;52.208;21.192;2023-03-01T18:50:29;26.10;;;15.20;;
39176;SDS011;24904;52.208;21.192;2023-03-01T18:55:36;25.20;;;13.70;;
39176;SDS011;24904;52.208;21.192;2023-03-01T19:00:41;23.80;;;13.80;;
39176;SDS011;24904;52.208;21.192;2023-03-01T19:05:47;24.90;;;13.50;;
39176;SDS011;24904;52.208;21.192;2023-03-01T19:10:55;31.80;;;13.30;;
39176;SDS011;24904;52.208;21.192;2023-03-01T19:16:05;23.90;;;12.70;;
39176;SDS011;24904;52.208;21.192;2023-03-01T19:21:11;28.00;;;13.60;;
39176;SDS011;24904;52.208;21.192;2023-03-01T19:26:17;25.10;;;13.40;;
39176;SDS011;24904;52.208;21.192;2023-03-01T19:31:24;23.10;;;12.80;;
39176;SDS011;24904;52.208;21.192;2023-03-01T19:36:31;23.60;;;12.50;;
39176;SDS011;24904;52.208;21.192;2023-03-01T19:41:36;27.40;;;14.80;;
39176;SDS011;24904;52.208;21.192;2023-03-01T19:46:41;31.70;;;17.30;;
39176;SDS011;24904;52.208;21.192;2023-03-01T19:51:46;30.30;;;16.30;;
39176;SDS011;24904;52.208;21.192;2023-03-01T19:56:51;32.80;;;16.40;;
39176;SDS011;24904;52.208;21.192;2023-03-01T20:01:57;28.80;;;16.50;;
39176;SDS011;24904;52.208;21.192;2023-03-01T20:07:02;29.90;;;16.30;;
39176;SDS011;24904;52.208;21.192;2023-03-01T20:12:07;33.70;;;16.00;;
39176;SDS011;24904;52.208;21.192;2023-03-01T20:17:12;36.70;;;18.70;;
39176;SDS011;24904;52.208;21.192;2023-03-01T20:22:17;50.30;;;29.70;;
39176;SDS011;24904;52.208;21.192;2023-03-01T20:27:23;54.50;;;29.20;;
39176;SDS011;24904;52.208;21.192;2023-03-01T20:32:29;47.20;;;27.20;;
39176;SDS011;24904;52.208;21.192;2023-03-01T20:37:34;40.60;;;22.80;;
39176;SDS011;24904;52.208;21.192;2023-03-01T20:42:39;34.30;;;18.80;;
39176;SDS011;24904;52.208;21.192;2023-03-01T20:47:44;38.60;;;20.30;;
39176;SDS011;24904;52.208;21.192;2023-03-01T20:52:49;37.00;;;19.60;;
39176;SDS011;24904;52.208;21.192;2023-03-01T20:57:54;35.90;;;18.80;;
39176;SDS011;24904;52.208;21.192;2023-03-01T21:02:59;43.80;;;24.00;;
39176;SDS011;24904;52.208;21.192;2023-03-01T21:08:05;42.10;;;23.50;;
39176;SDS011;24904;52.208;21.192;2023-03-01T21:13:10;42.10;;;24.20;;
39176;SDS011;24904;52.208;21.192;2023-03-01T21:18:15;37.30;;;21.70;;
39176;SDS011;24904;52.208;21.192;2023-03-01T21:23:20;38.10;;;22.20;;
39176;SDS011;24904;52.208;21.192;2023-03-01T21:28:25;38.30;;;20.90;;
39176;SDS011;24904;52.208;21.192;2023-03-01T21:33:33;41.40;;;22.70;;
39176;SDS011;24904;52.208;21.192;2023-03-01T21:38:39;40.90;;;21.20;;
39176;SDS011;24904;52.208;21.192;2023-03-01T21:43:47;34.40;;;21.00;;
39176;SDS011;24904;52.208;21.192;2023-03-01T21:48:53;42.70;;;22.10;;
39176;SDS011;24904;52.208;21.192;2023-03-01T21:53:59;38.70;;;20.60;;
39176;SDS011;24904;52.208;21.192;2023-03-01T21:59:05;44.00;;;19.80;;
39176;SDS011;24904;52.208;21.192;2023-03-01T22:04:13;39.30;;;18.80;;
39176;SDS011;24904;52.208;21.192;2023-03-01T22:09:21;36.50;;;20.30;;
39176;SDS011;24904;52.208;21.192;2023-03-01T22:14:27;39.00;;;20.60;;
39176;SDS011;24904;52.208;21.192;2023-03-01T22:19:33;44.30;;;22.50;;
39176;SDS011;24904;52.208;21.192;2023-03-01T22:24:38;41.50;;;22.10;;
39176;SDS011;24904;52.208;21.192;2023-03-01T22:29:43;44.30;;;22.50;;
39176;SDS011;24904;52.208;21.192;2023-03-01T22:34:48;38.20;;;19.80;;
39176;SDS011;24904;52.208;21.192;2023-03-01T22:39:54;39.10;;;21.60;;
39176;SDS011;24904;52.208;21.192;2023-03-01T22:44:59;41.40;;;23.00;;
39176;SDS011;24904;52.208;21.192;2023-03-01T22:50:05;46.90;;;22.20;;
39176;SDS011;24904;52.208;21.192;2023-03-01T22:55:14;40.00;;;22.20;;
39176;SDS011;24904;52.208;21.192;2023-03-01T23:00:19;40.40;;;22.30;;
39176;SDS011;24904;52.208;21.192;2023-03-01T23:05:25;39.90;;;21.80;;
39176;SDS011;24904;52.208;21.192;2023-03-01T23:10:30;46.40;;;23.60;;
39176;SDS011;24904;52.208;21.192;2023-03-01T23:15:35;43.10;;;21.90;;
39176;SDS011;24904;52.208;21.192;2023-03-01T23:20:45;41.70;;;21.30;;
39176;SDS011;24904;52.208;21.192;2023-03-01T23:25:54;45.20;;;24.20;;
39176;SDS011;24904;52.208;21.192;2023-03-01T23:36:05;40.80;;;23.00;;
39176;SDS011;24904;52.208;21.192;2023-03-01T23:41:17;50.60;;;25.00;;
39176;SDS011;24904;52.208;21.192;2023-03-01T23:46:26;41.80;;;23.60;;
39176;SDS011;24904;52.208;21.192;2023-03-01T23:51:33;47.40;;;25.90;;
39176;SDS011;24904;52.208;21.192;2023-03-01T23:56:39;47.40;;;24.80;;
